createdAt,value
2017-12-23T00:02:01.751Z,2.70
2017-12-23T00:04:30.385Z,2.80
2017-12-23T00:06:58.642Z,2.60
2017-12-23T00:09:26.888Z,2.60
2017-12-23T00:11:55.524Z,2.40
2017-12-23T00:14:23.815Z,2.53
2017-12-23T00:16:52.032Z,2.40
2017-12-23T00:19:20.300Z,2.87
2017-12-23T00:21:48.537Z,2.40
2017-12-23T00:24:16.792Z,2.90
2017-12-23T00:26:45.028Z,2.30
2017-12-23T00:29:13.267Z,2.60
2017-12-23T00:31:41.936Z,2.60
2017-12-23T00:34:10.170Z,2.47
2017-12-23T00:36:38.411Z,2.77
2017-12-23T00:39:07.075Z,2.70
2017-12-23T00:41:35.311Z,2.60
2017-12-23T00:44:03.556Z,2.53
2017-12-23T00:46:32.232Z,2.50
2017-12-23T00:49:00.463Z,2.60
2017-12-23T00:51:28.693Z,2.60
2017-12-23T00:53:57.447Z,2.70
2017-12-23T00:56:25.709Z,2.50
2017-12-23T00:58:53.931Z,2.50
2017-12-23T01:01:22.559Z,2.90
2017-12-23T01:03:50.800Z,2.40
2017-12-23T01:06:19.451Z,2.60
2017-12-23T01:08:47.936Z,2.17
2017-12-23T01:11:16.174Z,2.70
2017-12-23T01:13:44.430Z,2.23
2017-12-23T01:16:13.055Z,2.60
2017-12-23T01:18:41.290Z,2.30
2017-12-23T01:21:09.926Z,2.77
2017-12-23T01:23:38.151Z,2.40
2017-12-23T01:26:06.811Z,2.57
2017-12-23T01:28:35.280Z,2.33
2017-12-23T01:31:03.511Z,2.30
2017-12-23T01:33:32.040Z,2.30
2017-12-23T01:36:00.272Z,2.23
2017-12-23T01:38:28.512Z,2.30
2017-12-23T01:40:57.177Z,2.40
2017-12-23T01:43:26.301Z,2.60
2017-12-23T01:45:54.528Z,2.37
2017-12-23T01:48:33.719Z,2.20
2017-12-23T01:51:02.343Z,2.60
2017-12-23T01:53:30.599Z,2.40
2017-12-23T01:55:58.839Z,2.60
2017-12-23T01:58:27.503Z,2.50
2017-12-23T02:00:55.738Z,2.33
2017-12-23T02:03:23.968Z,1.93
2017-12-23T02:05:52.211Z,2.60
2017-12-23T02:08:20.451Z,2.33
2017-12-23T02:10:48.687Z,2.43
2017-12-23T02:13:16.955Z,2.37
2017-12-23T02:15:45.189Z,2.80
2017-12-23T02:18:13.415Z,1.90
2017-12-23T02:20:41.656Z,2.50
2017-12-23T02:23:09.888Z,2.70
2017-12-23T02:25:38.544Z,2.30
2017-12-23T02:28:06.779Z,2.30
2017-12-23T02:30:35.019Z,2.40
2017-12-23T02:33:03.661Z,2.40
2017-12-23T02:35:31.896Z,2.30
2017-12-23T02:38:00.170Z,2.30
2017-12-23T02:40:29.015Z,2.40
2017-12-23T02:42:57.252Z,2.27
2017-12-23T02:45:25.492Z,2.30
2017-12-23T02:47:53.724Z,2.57
2017-12-23T02:50:22.021Z,2.20
2017-12-23T02:52:50.260Z,2.40
2017-12-23T02:55:19.508Z,2.37
2017-12-23T02:57:47.813Z,2.20
2017-12-23T03:00:16.424Z,2.37
2017-12-23T03:02:44.935Z,2.60
2017-12-23T03:05:13.174Z,2.10
2017-12-23T03:07:41.813Z,2.53
2017-12-23T03:10:10.071Z,2.60
2017-12-23T03:12:38.308Z,2.50
2017-12-23T03:15:06.547Z,2.50
2017-12-23T03:17:35.303Z,2.50
2017-12-23T03:20:03.525Z,2.83
2017-12-23T03:22:32.143Z,3.10
2017-12-23T03:25:00.512Z,2.43
2017-12-23T03:27:28.739Z,2.40
2017-12-23T03:29:56.971Z,2.60
2017-12-23T03:32:25.243Z,2.37
2017-12-23T03:34:53.476Z,3.00
2017-12-23T03:37:22.096Z,2.70
2017-12-23T03:39:50.355Z,2.90
2017-12-23T03:42:18.589Z,2.43
2017-12-23T03:44:46.932Z,2.70
2017-12-23T03:47:15.231Z,2.60
2017-12-23T03:49:43.715Z,3.47
2017-12-23T03:52:11.943Z,3.00
2017-12-23T03:54:40.303Z,3.23
2017-12-23T03:57:08.932Z,2.50
2017-12-23T03:59:37.155Z,2.80
2017-12-23T04:02:05.837Z,2.93
2017-12-23T04:04:34.464Z,3.10
2017-12-23T04:07:02.707Z,3.13
2017-12-23T04:09:31.371Z,2.73
2017-12-23T04:11:59.595Z,2.63
2017-12-23T04:14:27.856Z,2.80
2017-12-23T04:16:56.277Z,2.40
2017-12-23T04:19:24.456Z,2.87
2017-12-23T04:21:52.696Z,2.87
2017-12-23T04:24:20.984Z,2.73
2017-12-23T04:26:49.269Z,2.77
2017-12-23T04:29:17.491Z,2.80
2017-12-23T04:31:46.155Z,2.70
2017-12-23T04:34:14.385Z,2.53
2017-12-23T04:36:42.624Z,2.90
2017-12-23T04:39:11.264Z,2.70
2017-12-23T04:41:39.497Z,3.20
2017-12-23T04:44:07.726Z,2.80
2017-12-23T04:46:35.963Z,2.70
2017-12-23T04:49:04.199Z,2.77
2017-12-23T04:51:32.831Z,3.07
2017-12-23T04:54:01.067Z,2.90
2017-12-23T04:56:29.698Z,3.10
2017-12-23T04:58:57.964Z,2.80
2017-12-23T05:01:26.204Z,2.83
2017-12-23T05:03:54.530Z,2.67
2017-12-23T05:06:22.790Z,2.87
2017-12-23T05:08:51.024Z,2.70
2017-12-23T05:11:19.650Z,2.63
2017-12-23T05:13:47.912Z,3.00
2017-12-23T05:16:16.157Z,2.80
2017-12-23T05:18:44.783Z,3.03
2017-12-23T05:21:13.059Z,3.10
2017-12-23T05:23:41.287Z,3.10
2017-12-23T05:26:09.907Z,3.13
2017-12-23T05:28:38.169Z,3.10
2017-12-23T05:31:06.399Z,2.90
2017-12-23T05:33:34.970Z,2.70
2017-12-23T05:36:03.451Z,3.07
2017-12-23T05:38:31.690Z,2.50
2017-12-23T05:40:59.966Z,2.87
2017-12-23T05:43:28.198Z,2.50
2017-12-23T05:45:56.433Z,2.60
2017-12-23T05:48:24.695Z,2.90
2017-12-23T05:50:52.933Z,3.20
2017-12-23T05:53:21.163Z,2.53
2017-12-23T05:55:49.412Z,2.83
2017-12-23T05:58:17.655Z,3.20
2017-12-23T06:00:46.272Z,2.63
2017-12-23T06:03:14.507Z,2.83
2017-12-23T06:05:43.136Z,3.07
2017-12-23T06:08:11.373Z,3.00
2017-12-23T06:10:40.027Z,2.70
2017-12-23T06:13:08.248Z,3.10
2017-12-23T06:15:36.489Z,3.13
2017-12-23T06:18:04.720Z,3.10
2017-12-23T06:20:32.948Z,3.23
2017-12-23T06:23:01.187Z,3.00
2017-12-23T06:25:29.424Z,2.63
2017-12-23T06:27:57.655Z,3.20
2017-12-23T06:30:25.917Z,3.40
2017-12-23T06:32:54.166Z,3.90
2017-12-23T06:35:22.407Z,3.27
2017-12-23T06:37:50.709Z,3.23
2017-12-23T06:40:19.240Z,3.50
2017-12-23T06:42:47.520Z,3.23
2017-12-23T06:45:15.776Z,2.90
2017-12-23T06:47:44.006Z,3.80
2017-12-23T06:50:12.628Z,4.00
2017-12-23T06:52:40.907Z,3.50
2017-12-23T06:55:09.126Z,3.00
2017-12-23T06:57:37.787Z,3.70
2017-12-23T07:00:06.039Z,3.60
2017-12-23T07:02:34.278Z,3.50
2017-12-23T07:05:02.909Z,3.83
2017-12-23T07:07:31.183Z,4.00
2017-12-23T07:09:59.416Z,4.50
2017-12-23T07:12:27.660Z,3.57
2017-12-23T07:14:55.924Z,3.93
2017-12-23T07:17:24.404Z,3.90
2017-12-23T07:19:52.632Z,4.30
2017-12-23T07:22:21.161Z,3.37
2017-12-23T07:24:49.392Z,3.80
2017-12-23T07:27:17.628Z,4.00
2017-12-23T07:29:45.884Z,3.70
2017-12-23T07:32:14.114Z,4.20
2017-12-23T07:34:42.347Z,4.23
2017-12-23T07:37:10.604Z,4.13
2017-12-23T07:39:38.821Z,4.10
2017-12-23T07:42:07.491Z,4.53
2017-12-23T07:44:35.755Z,4.07
2017-12-23T07:47:03.958Z,4.03
2017-12-23T07:49:32.648Z,4.50
2017-12-23T07:52:01.288Z,4.00
2017-12-23T07:54:29.519Z,4.00
2017-12-23T07:56:57.769Z,4.03
2017-12-23T07:59:26.467Z,4.10
2017-12-23T08:01:55.143Z,4.27
2017-12-23T08:04:24.235Z,4.17
2017-12-23T08:06:52.464Z,4.47
2017-12-23T08:09:20.763Z,4.33
2017-12-23T08:11:49.251Z,4.10
2017-12-23T08:14:17.477Z,4.27
2017-12-23T08:16:45.957Z,4.60
2017-12-23T08:19:14.249Z,4.17
2017-12-23T08:21:42.905Z,4.30
2017-12-23T08:24:11.794Z,4.30
2017-12-23T08:26:40.453Z,5.00
2017-12-23T08:29:08.769Z,4.50
2017-12-23T08:31:37.049Z,4.20
2017-12-23T08:34:05.317Z,4.20
2017-12-23T08:36:33.715Z,4.70
2017-12-23T08:39:01.979Z,4.10
2017-12-23T08:41:30.246Z,4.10
2017-12-23T08:43:58.858Z,4.20
2017-12-23T08:46:27.188Z,3.87
2017-12-23T08:48:55.823Z,4.00
2017-12-23T08:51:24.198Z,3.20
2017-12-23T08:53:52.524Z,2.70
2017-12-23T08:56:20.796Z,3.07
2017-12-23T08:58:49.046Z,2.93
2017-12-23T09:01:17.307Z,2.97
2017-12-23T09:03:45.547Z,5.63
2017-12-23T09:06:13.808Z,5.07
2017-12-23T09:08:42.151Z,4.57
2017-12-23T09:11:10.368Z,6.90
2017-12-23T09:13:38.619Z,5.10
2017-12-23T09:16:06.864Z,5.87
2017-12-23T09:18:35.107Z,5.10
2017-12-23T09:21:03.640Z,4.87
2017-12-23T09:23:31.903Z,5.37
2017-12-23T09:26:00.115Z,6.00
2017-12-23T09:28:29.085Z,6.90
2017-12-23T09:30:57.568Z,7.60
2017-12-23T09:33:25.837Z,7.53
2017-12-23T09:35:54.135Z,8.23
2017-12-23T09:38:22.599Z,8.30
2017-12-23T09:40:50.839Z,8.73
2017-12-23T09:43:19.100Z,8.10
2017-12-23T09:45:47.419Z,8.47
2017-12-23T09:48:15.681Z,7.80
2017-12-23T09:50:43.958Z,8.90
2017-12-23T09:53:12.300Z,7.90
2017-12-23T09:55:40.591Z,8.37
2017-12-23T09:58:08.841Z,7.60
2017-12-23T10:00:37.485Z,9.00
2017-12-23T10:03:05.776Z,7.83
2017-12-23T10:05:34.039Z,8.03
2017-12-23T10:08:02.283Z,7.53
2017-12-23T10:10:30.576Z,8.47
2017-12-23T10:12:58.846Z,7.00
2017-12-23T10:15:27.154Z,8.00
2017-12-23T10:17:55.449Z,7.17
2017-12-23T10:20:24.109Z,7.60
2017-12-23T10:22:52.352Z,7.20
2017-12-23T10:25:20.636Z,7.73
2017-12-23T10:27:48.931Z,6.80
2017-12-23T10:30:17.213Z,6.30
2017-12-23T10:32:45.547Z,6.40
2017-12-23T10:35:14.211Z,6.30
2017-12-23T10:37:42.887Z,5.70
2017-12-23T10:40:11.516Z,5.67
2017-12-23T10:42:39.744Z,5.40
2017-12-23T10:45:07.984Z,5.77
2017-12-23T10:47:36.230Z,4.93
2017-12-23T10:50:04.542Z,5.20
2017-12-23T10:52:33.469Z,4.20
2017-12-23T10:55:01.708Z,4.63
2017-12-23T10:57:29.959Z,4.70
2017-12-23T10:59:58.224Z,3.10
2017-12-23T11:02:26.457Z,1.90
2017-12-23T11:04:54.716Z,2.10
2017-12-23T11:07:22.947Z,2.70
2017-12-23T11:09:51.179Z,3.40
2017-12-23T11:12:19.429Z,3.10
2017-12-23T11:14:47.684Z,3.10
2017-12-23T11:17:16.204Z,3.23
2017-12-23T11:19:44.480Z,3.37
2017-12-23T11:22:12.700Z,3.30
2017-12-23T11:24:41.126Z,3.40
2017-12-23T11:27:09.502Z,3.20
2017-12-23T11:29:37.744Z,3.20
2017-12-23T11:32:05.992Z,3.20
2017-12-23T11:34:34.296Z,3.17
2017-12-23T11:37:02.528Z,3.10
2017-12-23T11:39:30.784Z,3.10
2017-12-23T11:41:59.011Z,3.27
2017-12-23T11:44:27.256Z,3.33
2017-12-23T11:46:55.521Z,2.77
2017-12-23T11:49:23.768Z,3.20
2017-12-23T11:51:52.004Z,3.03
2017-12-23T11:54:20.674Z,2.63
2017-12-23T11:56:49.336Z,2.90
2017-12-23T11:59:17.572Z,3.30
2017-12-23T12:01:45.880Z,2.57
2017-12-23T12:04:14.112Z,2.80
2017-12-23T12:06:42.536Z,2.80
2017-12-23T12:09:10.792Z,2.80
2017-12-23T12:11:39.063Z,2.40
2017-12-23T12:14:07.310Z,2.63
2017-12-23T12:16:35.544Z,2.40
2017-12-23T12:19:03.816Z,2.37
2017-12-23T12:21:32.048Z,2.50
2017-12-23T12:24:00.312Z,2.50
2017-12-23T12:26:28.581Z,2.67
2017-12-23T12:28:56.827Z,3.03
2017-12-23T12:31:25.095Z,2.77
2017-12-23T12:33:53.364Z,2.80
2017-12-23T12:36:21.589Z,2.70
2017-12-23T12:38:50.266Z,2.73
2017-12-23T12:41:18.897Z,2.70
2017-12-23T12:43:47.152Z,2.67
2017-12-23T12:46:15.440Z,2.67
2017-12-23T12:48:43.681Z,2.30
2017-12-23T12:51:12.315Z,3.00
2017-12-23T12:53:40.587Z,2.50
2017-12-23T12:56:08.825Z,2.83
2017-12-23T12:58:37.450Z,2.90
2017-12-23T13:01:05.724Z,2.93
2017-12-23T13:03:33.948Z,2.60
2017-12-23T13:06:02.595Z,2.80
2017-12-23T13:08:30.878Z,2.37
2017-12-23T13:10:59.123Z,2.90
2017-12-23T13:13:27.351Z,3.77
2017-12-23T13:15:56.025Z,3.10
2017-12-23T13:18:24.312Z,3.43
2017-12-23T13:20:52.950Z,3.47
2017-12-23T13:23:21.701Z,3.70
2017-12-23T13:25:50.092Z,3.90
2017-12-23T13:28:18.366Z,3.70
2017-12-23T13:30:46.599Z,3.90
2017-12-23T13:33:14.832Z,3.80
2017-12-23T13:35:43.085Z,3.70
2017-12-23T13:38:11.330Z,4.03
2017-12-23T13:40:39.577Z,4.10
2017-12-23T13:43:08.369Z,4.10
2017-12-23T13:45:36.591Z,3.93
2017-12-23T13:48:04.915Z,4.20
2017-12-23T13:50:33.279Z,3.90
2017-12-23T13:53:01.528Z,3.50
2017-12-23T13:55:29.755Z,2.97
2017-12-23T13:57:58.113Z,3.70
2017-12-23T14:00:26.343Z,3.33
2017-12-23T14:02:54.628Z,3.37
2017-12-23T14:05:23.316Z,3.10
2017-12-23T14:07:51.940Z,3.17
2017-12-23T14:10:20.210Z,3.60
2017-12-23T14:12:48.502Z,3.83
2017-12-23T14:15:16.736Z,3.73
2017-12-23T14:17:45.808Z,3.80
2017-12-23T14:20:14.452Z,3.67
2017-12-23T14:22:42.688Z,3.70
2017-12-23T14:25:10.983Z,4.20
2017-12-23T14:27:39.287Z,4.13
2017-12-23T14:30:07.523Z,4.13
2017-12-23T14:32:35.800Z,4.13
2017-12-23T14:35:04.047Z,4.33
2017-12-23T14:37:32.680Z,4.50
2017-12-23T14:40:00.985Z,4.50
2017-12-23T14:42:29.221Z,4.70
2017-12-23T14:44:57.477Z,5.57
2017-12-23T14:47:25.756Z,6.33
2017-12-23T14:49:54.075Z,5.30
2017-12-23T14:52:22.298Z,6.17
2017-12-23T14:54:50.934Z,6.20
2017-12-23T14:57:19.421Z,6.27
2017-12-23T14:59:47.691Z,6.23
2017-12-23T15:02:15.925Z,6.60
2017-12-23T15:04:44.161Z,6.30
2017-12-23T15:07:12.420Z,6.90
2017-12-23T15:09:40.664Z,7.00
2017-12-23T15:12:08.915Z,7.33
2017-12-23T15:14:37.185Z,6.73
2017-12-23T15:17:05.438Z,7.77
2017-12-23T15:19:33.680Z,7.30
2017-12-23T15:22:01.936Z,7.17
2017-12-23T15:24:30.253Z,7.30
2017-12-23T15:26:58.576Z,7.30
2017-12-23T15:29:26.811Z,7.43
2017-12-23T15:31:55.103Z,7.37
2017-12-23T15:34:24.232Z,8.10
2017-12-23T15:36:52.480Z,8.50
2017-12-23T15:39:21.139Z,8.70
2017-12-23T15:41:49.416Z,8.50
2017-12-23T15:44:17.653Z,8.67
2017-12-23T15:46:45.904Z,8.73
2017-12-23T15:49:14.560Z,9.30
2017-12-23T15:51:42.847Z,8.87
2017-12-23T15:54:11.490Z,9.90
2017-12-23T15:56:40.623Z,9.97
2017-12-23T15:59:08.918Z,9.33
2017-12-23T16:01:37.539Z,9.80
2017-12-23T16:04:05.851Z,10.73
2017-12-23T16:06:34.103Z,10.87
2017-12-23T16:09:02.707Z,10.60
2017-12-23T16:11:31.076Z,11.63
2017-12-23T16:13:59.314Z,10.90
2017-12-23T16:16:27.586Z,11.00
2017-12-23T16:18:55.835Z,12.30
2017-12-23T16:21:24.472Z,12.70
2017-12-23T16:23:52.979Z,13.53
2017-12-23T16:26:21.237Z,13.33
2017-12-23T16:28:49.479Z,13.10
2017-12-23T16:31:18.074Z,14.23
2017-12-23T16:33:46.312Z,13.50
2017-12-23T16:36:14.947Z,14.77
2017-12-23T16:38:43.205Z,16.70
2017-12-23T16:41:11.459Z,14.97
2017-12-23T16:43:40.097Z,16.87
2017-12-23T16:46:08.375Z,16.10
2017-12-23T16:48:36.609Z,15.70
2017-12-23T16:51:04.872Z,16.80
2017-12-23T16:53:33.162Z,16.17
2017-12-23T16:56:01.404Z,17.63
2017-12-23T16:58:29.971Z,17.57
2017-12-23T17:00:58.304Z,17.20
2017-12-23T17:03:26.548Z,17.63
2017-12-23T17:05:55.190Z,17.90
2017-12-23T17:08:23.452Z,18.13
2017-12-23T17:10:51.700Z,17.80
2017-12-23T17:13:20.001Z,20.00
2017-12-23T17:15:48.284Z,20.13
2017-12-23T17:18:16.540Z,19.87
2017-12-23T17:20:44.802Z,20.10
2017-12-23T17:23:13.046Z,18.60
2017-12-23T17:25:41.332Z,19.27
2017-12-23T17:28:16.608Z,20.07
2017-12-23T17:30:44.856Z,19.13
2017-12-23T17:33:13.502Z,20.53
2017-12-23T17:35:41.787Z,20.17
2017-12-23T17:38:10.023Z,21.50
2017-12-23T17:40:38.424Z,21.20
2017-12-23T17:43:07.156Z,19.23
2017-12-23T17:45:35.796Z,20.67
2017-12-23T17:48:04.041Z,20.40
2017-12-23T17:50:32.329Z,19.50
2017-12-23T17:53:00.576Z,20.07
2017-12-23T17:55:28.819Z,21.03
2017-12-23T17:57:57.217Z,19.60
2017-12-23T18:00:25.484Z,18.83
2017-12-23T18:02:54.151Z,18.03
2017-12-23T18:05:22.834Z,19.63
2017-12-23T18:07:51.133Z,19.13
2017-12-23T18:10:19.368Z,18.97
2017-12-23T18:12:47.638Z,18.33
2017-12-23T18:15:15.887Z,19.83
2017-12-23T18:17:44.213Z,17.93
2017-12-23T18:20:12.491Z,17.93
2017-12-23T18:22:40.771Z,18.03
2017-12-23T18:25:09.048Z,18.87
2017-12-23T18:27:37.372Z,18.27
2017-12-23T18:30:05.624Z,17.30
2017-12-23T18:32:34.279Z,17.60
2017-12-23T18:35:02.528Z,18.13
2017-12-23T18:37:30.771Z,17.57
2017-12-23T18:39:59.408Z,18.70
2017-12-23T18:42:27.712Z,17.13
2017-12-23T18:44:55.961Z,17.60
2017-12-23T18:47:24.203Z,17.17
2017-12-23T18:49:52.506Z,16.57
2017-12-23T18:52:20.759Z,15.90
2017-12-23T18:54:48.998Z,15.90
2017-12-23T18:57:17.251Z,16.27
2017-12-23T18:59:45.500Z,14.97
2017-12-23T19:02:13.767Z,15.90
2017-12-23T19:04:42.288Z,15.63
2017-12-23T19:07:10.537Z,16.10
2017-12-23T19:09:38.815Z,16.00
2017-12-23T19:12:07.115Z,15.00
2017-12-23T19:14:35.348Z,15.10
2017-12-23T19:17:04.547Z,14.63
2017-12-23T19:19:32.805Z,14.70
2017-12-23T19:22:01.049Z,15.23
2017-12-23T19:24:29.621Z,14.20
2017-12-23T19:26:57.863Z,13.37
2017-12-23T19:29:26.107Z,14.80
2017-12-23T19:31:54.416Z,13.90
2017-12-23T19:34:23.118Z,14.53
2017-12-23T19:36:51.347Z,13.90
2017-12-23T19:39:19.619Z,15.23
2017-12-23T19:41:47.876Z,14.70
2017-12-23T19:44:16.120Z,13.87
2017-12-23T19:46:44.380Z,12.57
2017-12-23T19:49:13.304Z,14.67
2017-12-23T19:51:41.590Z,13.10
2017-12-23T19:54:09.844Z,13.50
2017-12-23T19:56:38.092Z,13.33
2017-12-23T19:59:06.375Z,14.10
2017-12-23T20:01:34.882Z,14.10
2017-12-23T20:04:03.111Z,11.40
2017-12-23T20:06:31.395Z,14.50
2017-12-23T20:08:59.639Z,13.57
2017-12-23T20:11:28.323Z,11.90
2017-12-23T20:13:56.588Z,13.70
2017-12-23T20:16:24.836Z,12.53
2017-12-23T20:18:53.089Z,9.73
2017-12-23T20:21:21.335Z,11.47
2017-12-23T20:23:50.022Z,11.60
2017-12-23T20:26:18.717Z,10.87
2017-12-23T20:28:47.326Z,10.97
2017-12-23T20:31:15.675Z,10.13
2017-12-23T20:33:43.989Z,10.90
2017-12-23T20:36:12.244Z,11.23
2017-12-23T20:38:40.492Z,11.40
2017-12-23T20:41:09.232Z,11.80
2017-12-23T20:43:37.574Z,12.47
2017-12-23T20:46:05.814Z,11.10
2017-12-23T20:48:34.149Z,11.77
2017-12-23T20:51:02.408Z,11.27
2017-12-23T20:53:30.648Z,11.67
2017-12-23T20:55:59.880Z,11.60
2017-12-23T20:58:28.264Z,11.27
2017-12-23T21:00:56.524Z,11.20
2017-12-23T21:03:24.816Z,10.30
2017-12-23T21:05:53.358Z,11.23
2017-12-23T21:08:21.743Z,11.73
2017-12-23T21:10:50.023Z,10.80
2017-12-23T21:13:18.295Z,11.50
2017-12-23T21:15:47.085Z,11.60
2017-12-23T21:18:15.277Z,11.27
2017-12-23T21:20:43.533Z,10.73
2017-12-23T21:23:12.180Z,10.90
2017-12-23T21:31:40.595Z,10.17
2017-12-23T21:34:09.853Z,10.90
2017-12-23T21:36:38.242Z,9.87
2017-12-23T21:39:07.702Z,10.70
2017-12-23T21:41:37.503Z,10.47
2017-12-23T21:44:06.730Z,9.70
2017-12-23T21:46:36.012Z,10.33
2017-12-23T21:49:05.070Z,10.87
2017-12-23T21:51:34.527Z,10.80
2017-12-23T21:54:03.532Z,10.70
2017-12-23T21:56:32.438Z,10.47
2017-12-23T21:59:01.360Z,9.43
2017-12-23T22:01:32.179Z,10.80
2017-12-23T22:04:02.491Z,10.73
2017-12-23T22:06:31.543Z,10.87
2017-12-23T22:09:02.335Z,10.50
2017-12-23T22:11:32.182Z,10.70
2017-12-23T22:14:00.496Z,10.03
2017-12-23T22:16:29.145Z,9.87
2017-12-23T22:18:57.410Z,10.20
2017-12-23T22:21:25.659Z,10.27
2017-12-23T22:23:54.170Z,10.70
2017-12-23T22:26:22.548Z,10.57
2017-12-23T22:28:50.788Z,10.80
2017-12-23T22:31:20.395Z,10.20
2017-12-23T22:33:48.723Z,10.17
2017-12-23T22:36:17.666Z,10.57
2017-12-23T22:38:46.285Z,10.60
2017-12-23T22:41:15.125Z,11.20
2017-12-23T22:43:43.375Z,10.63
2017-12-23T22:46:12.145Z,10.80
2017-12-23T22:48:40.433Z,10.97
2017-12-23T22:51:08.667Z,10.83
2017-12-23T22:53:36.926Z,11.13
2017-12-23T22:56:06.044Z,11.73
2017-12-23T22:58:34.339Z,11.90
2017-12-23T23:01:03.002Z,12.47
2017-12-23T23:03:31.554Z,12.37
2017-12-23T23:05:59.875Z,11.90
2017-12-23T23:08:28.113Z,12.50
2017-12-23T23:10:56.355Z,12.80
2017-12-23T23:13:25.329Z,13.00
2017-12-23T23:15:53.605Z,8.30
2017-12-23T23:18:21.856Z,11.67
2017-12-23T23:20:50.119Z,11.40
2017-12-23T23:23:18.391Z,9.13
2017-12-23T23:25:46.622Z,7.00
2017-12-23T23:28:15.145Z,7.70
2017-12-23T23:30:43.388Z,8.40
2017-12-23T23:33:12.047Z,8.33
2017-12-23T23:35:40.301Z,8.03
2017-12-23T23:38:08.559Z,9.27
2017-12-23T23:40:36.798Z,11.60
2017-12-23T23:43:05.464Z,9.67
2017-12-23T23:45:33.709Z,11.50
2017-12-23T23:48:01.947Z,11.43
2017-12-23T23:50:30.220Z,9.30
2017-12-23T23:52:58.859Z,11.80
2017-12-23T23:55:27.103Z,12.10
2017-12-23T23:57:55.375Z,11.97
